createdAt,value
2019-03-09T00:00:23.025Z,8.21
2019-03-09T00:01:22.983Z,8.21
2019-03-09T00:02:22.990Z,8.19
2019-03-09T00:03:22.978Z,8.2
2019-03-09T00:04:23.007Z,8.2
2019-03-09T00:05:23.003Z,8.17
2019-03-09T00:06:23.003Z,8.2
2019-03-09T00:07:23.029Z,8.16
2019-03-09T00:08:23.690Z,8.16
2019-03-09T00:09:22.990Z,8.17
2019-03-09T00:10:22.978Z,8.17
2019-03-09T00:11:22.966Z,8.16
2019-03-09T00:12:22.966Z,8.17
2019-03-09T00:13:22.984Z,8.19
2019-03-09T00:14:22.974Z,8.16
2019-03-09T00:15:22.966Z,8.17
2019-03-09T00:16:23.029Z,8.14
2019-03-09T00:17:22.972Z,8.19
2019-03-09T00:18:23.042Z,8.17
2019-03-09T00:19:23.012Z,8.13
2019-03-09T00:20:22.995Z,8.17
2019-03-09T00:21:22.967Z,8.17
2019-03-09T00:22:22.966Z,8.16
2019-03-09T00:23:22.956Z,8.14
2019-03-09T00:24:22.967Z,8.17
2019-03-09T00:25:23.393Z,8.12
2019-03-09T00:26:22.990Z,8.13
2019-03-09T00:27:30.410Z,8.16
2019-03-09T00:28:22.974Z,8.14
2019-03-09T00:29:23.195Z,8.14
2019-03-09T00:30:23.140Z,8.14
2019-03-09T00:31:22.951Z,8.16
2019-03-09T00:32:22.957Z,8.16
2019-03-09T00:33:22.949Z,8.14
2019-03-09T00:34:22.977Z,8.17
2019-03-09T00:35:22.944Z,8.16
2019-03-09T00:36:23.100Z,8.17
2019-03-09T00:37:22.939Z,8.17
2019-03-09T00:38:22.960Z,8.19
2019-03-09T00:39:22.927Z,8.17
2019-03-09T00:40:22.942Z,8.17
2019-03-09T00:41:22.989Z,8.16
2019-03-09T00:42:23.534Z,8.16
2019-03-09T00:43:22.920Z,8.2
2019-03-09T00:44:22.945Z,8.19
2019-03-09T00:45:22.944Z,8.17
2019-03-09T00:46:22.938Z,8.19
2019-03-09T00:47:22.934Z,8.2
2019-03-09T00:48:22.953Z,8.19
2019-03-09T00:49:22.972Z,8.17
2019-03-09T00:50:23.254Z,8.2
2019-03-09T00:51:22.969Z,8.17
2019-03-09T00:52:22.985Z,8.2
2019-03-09T00:53:22.948Z,8.19
2019-03-09T00:54:22.928Z,8.19
2019-03-09T00:55:22.920Z,8.16
2019-03-09T00:56:22.918Z,8.17
2019-03-09T00:57:22.934Z,8.17
2019-03-09T00:58:22.913Z,8.2
2019-03-09T00:59:22.969Z,8.19
2019-03-09T01:00:22.926Z,8.21
2019-03-09T01:01:22.932Z,8.17
2019-03-09T01:02:23.117Z,8.19
2019-03-09T01:03:22.895Z,8.19
2019-03-09T01:04:22.922Z,8.2
2019-03-09T01:05:22.891Z,8.19
2019-03-09T01:06:22.928Z,8.2
2019-03-09T01:07:23.005Z,8.21
2019-03-09T01:08:22.915Z,8.2
2019-03-09T01:09:22.961Z,8.21
2019-03-09T01:10:22.907Z,8.19
2019-03-09T01:11:22.909Z,8.24
2019-03-09T01:12:22.931Z,8.21
2019-03-09T01:13:23.270Z,8.26
2019-03-09T01:14:22.903Z,8.23
2019-03-09T01:15:22.894Z,8.26
2019-03-09T01:16:22.894Z,8.26
2019-03-09T01:17:22.884Z,8.24
2019-03-09T01:18:22.904Z,8.23
2019-03-09T01:19:22.907Z,8.26
2019-03-09T01:20:22.887Z,8.26
2019-03-09T01:21:22.904Z,8.21
2019-03-09T01:22:22.901Z,8.27
2019-03-09T01:23:22.881Z,8.24
2019-03-09T01:24:22.859Z,8.27
2019-03-09T01:25:22.857Z,8.27
2019-03-09T01:26:22.859Z,8.27
2019-03-09T01:27:22.866Z,8.26
2019-03-09T01:28:22.884Z,8.26
2019-03-09T01:29:22.901Z,8.29
2019-03-09T01:30:22.857Z,8.26
2019-03-09T01:31:22.864Z,8.26
2019-03-09T01:32:22.851Z,8.26
2019-03-09T01:33:22.873Z,8.27
2019-03-09T01:34:22.930Z,8.26
2019-03-09T01:35:22.872Z,8.27
2019-03-09T01:36:22.842Z,8.3
2019-03-09T01:37:22.879Z,8.29
2019-03-09T01:38:22.854Z,8.31
2019-03-09T01:39:22.861Z,8.31
2019-03-09T01:40:22.820Z,8.31
2019-03-09T01:41:22.850Z,8.3
2019-03-09T01:42:22.827Z,8.34
2019-03-09T01:43:22.843Z,8.33
2019-03-09T01:44:22.837Z,8.33
2019-03-09T01:45:22.855Z,8.37
2019-03-09T01:46:22.857Z,8.37
2019-03-09T01:47:22.852Z,8.38
2019-03-09T01:48:22.818Z,8.38
2019-03-09T01:49:22.857Z,8.4
2019-03-09T01:50:22.826Z,8.43
2019-03-09T01:51:22.877Z,8.44
2019-03-09T01:52:22.816Z,8.43
2019-03-09T01:53:22.841Z,8.45
2019-03-09T01:54:22.822Z,8.47
2019-03-09T01:55:23.142Z,8.52
2019-03-09T01:56:23.039Z,8.51
2019-03-09T01:57:22.803Z,8.51
2019-03-09T01:58:22.843Z,8.52
2019-03-09T01:59:22.875Z,8.54
2019-03-09T02:00:22.841Z,8.54
2019-03-09T02:01:22.831Z,8.57
2019-03-09T02:02:22.861Z,8.58
2019-03-09T02:03:22.858Z,8.59
2019-03-09T02:04:22.821Z,8.59
2019-03-09T02:05:22.853Z,8.58
2019-03-09T02:06:22.886Z,8.61
2019-03-09T02:07:22.824Z,8.64
2019-03-09T02:08:22.790Z,8.65
2019-03-09T02:09:22.819Z,8.66
2019-03-09T02:10:22.820Z,8.65
2019-03-09T02:11:22.801Z,8.68
2019-03-09T02:12:22.841Z,8.69
2019-03-09T02:13:22.831Z,8.71
2019-03-09T02:14:22.841Z,8.66
2019-03-09T02:15:22.786Z,8.68
2019-03-09T02:16:22.786Z,8.71
2019-03-09T02:17:22.809Z,8.71
2019-03-09T02:18:22.784Z,8.69
2019-03-09T02:19:22.800Z,8.71
2019-03-09T02:20:22.800Z,8.72
2019-03-09T02:21:22.788Z,8.71
2019-03-09T02:22:22.795Z,8.72
2019-03-09T02:23:22.841Z,8.74
2019-03-09T02:24:22.799Z,8.75
2019-03-09T02:25:22.789Z,8.75
2019-03-09T02:26:22.814Z,8.72
2019-03-09T02:27:22.820Z,8.75
2019-03-09T02:28:22.799Z,8.76
2019-03-09T02:29:22.784Z,8.76
2019-03-09T02:30:22.785Z,8.78
2019-03-09T02:31:22.766Z,8.79
2019-03-09T02:32:22.803Z,8.79
2019-03-09T02:33:22.810Z,8.76
2019-03-09T02:34:22.853Z,8.76
2019-03-09T02:35:22.800Z,8.76
2019-03-09T02:36:22.833Z,8.75
2019-03-09T02:37:22.779Z,8.78
2019-03-09T02:38:23.157Z,8.82
2019-03-09T02:39:22.858Z,8.78
2019-03-09T02:40:23.540Z,8.8
2019-03-09T02:41:22.803Z,8.82
2019-03-09T02:42:22.772Z,8.8
2019-03-09T02:43:22.746Z,8.82
2019-03-09T02:44:22.769Z,8.8
2019-03-09T02:45:22.835Z,8.85
2019-03-09T02:46:22.791Z,8.83
2019-03-09T02:47:22.823Z,8.82
2019-03-09T02:48:22.787Z,8.88
2019-03-09T02:49:22.799Z,8.88
2019-03-09T02:50:22.769Z,8.91
2019-03-09T02:51:22.775Z,8.93
2019-03-09T02:52:22.764Z,8.92
2019-03-09T02:53:22.758Z,8.95
2019-03-09T02:54:22.762Z,8.96
2019-03-09T02:55:22.779Z,8.95
2019-03-09T02:56:22.766Z,8.95
2019-03-09T02:57:22.770Z,8.98
2019-03-09T02:58:22.753Z,8.98
2019-03-09T02:59:22.769Z,8.99
2019-03-09T03:00:22.923Z,8.96
2019-03-09T03:01:22.988Z,8.98
2019-03-09T03:02:22.806Z,8.96
2019-03-09T03:03:22.768Z,8.98
2019-03-09T03:04:22.736Z,8.96
2019-03-09T03:05:22.797Z,8.99
2019-03-09T03:06:22.730Z,8.98
2019-03-09T03:07:22.751Z,8.96
2019-03-09T03:08:22.720Z,8.98
2019-03-09T03:09:22.714Z,8.99
2019-03-09T03:10:22.746Z,9
2019-03-09T03:11:22.749Z,8.99
2019-03-09T03:12:22.752Z,8.99
2019-03-09T03:13:22.707Z,8.99
2019-03-09T03:14:22.756Z,8.96
2019-03-09T03:15:22.722Z,8.98
2019-03-09T03:16:22.732Z,9
2019-03-09T03:17:22.726Z,9
2019-03-09T03:18:22.741Z,8.99
2019-03-09T03:19:22.732Z,8.96
2019-03-09T03:20:22.723Z,9
2019-03-09T03:21:22.777Z,9
2019-03-09T03:22:22.713Z,9.04
2019-03-09T03:23:22.697Z,9.02
2019-03-09T03:24:22.714Z,9.02
2019-03-09T03:25:22.723Z,9.03
2019-03-09T03:26:22.714Z,9.04
2019-03-09T03:27:22.710Z,9.06
2019-03-09T03:28:22.712Z,9.06
2019-03-09T03:29:22.701Z,9.06
2019-03-09T03:30:22.814Z,9.07
2019-03-09T03:31:22.715Z,9.07
2019-03-09T03:32:22.742Z,9.07
2019-03-09T03:33:22.940Z,9.07
2019-03-09T03:34:22.829Z,9.09
2019-03-09T03:35:22.724Z,9.13
2019-03-09T03:36:22.685Z,9.13
2019-03-09T03:37:22.718Z,9.14
2019-03-09T03:38:22.691Z,9.13
2019-03-09T03:39:22.697Z,9.16
2019-03-09T03:40:22.725Z,9.13
2019-03-09T03:41:22.697Z,9.16
2019-03-09T03:42:22.690Z,9.14
2019-03-09T03:43:22.719Z,9.14
2019-03-09T03:44:22.771Z,9.16
2019-03-09T03:45:22.665Z,9.19
2019-03-09T03:46:22.682Z,9.17
2019-03-09T03:47:22.672Z,9.19
2019-03-09T03:48:22.681Z,9.21
2019-03-09T03:49:22.692Z,9.26
2019-03-09T03:50:22.692Z,9.26
2019-03-09T03:51:22.717Z,9.26
2019-03-09T03:52:22.724Z,9.26
2019-03-09T03:53:22.689Z,9.24
2019-03-09T03:54:22.735Z,9.26
2019-03-09T03:55:22.708Z,9.24
2019-03-09T03:56:22.664Z,9.23
2019-03-09T03:57:22.649Z,9.27
2019-03-09T03:58:22.677Z,9.23
2019-03-09T03:59:22.647Z,9.23
2019-03-09T04:00:22.932Z,9.23
2019-03-09T04:01:22.645Z,9.21
2019-03-09T04:02:22.646Z,9.21
2019-03-09T04:03:22.658Z,9.24
2019-03-09T04:04:22.647Z,9.24
2019-03-09T04:05:22.690Z,9.27
2019-03-09T04:06:22.670Z,9.26
2019-03-09T04:07:22.642Z,9.27
2019-03-09T04:08:22.643Z,9.26
2019-03-09T04:09:22.652Z,9.24
2019-03-09T04:10:22.664Z,9.21
2019-03-09T04:11:22.627Z,9.19
2019-03-09T04:12:22.642Z,9.2
2019-03-09T04:13:22.637Z,9.19
2019-03-09T04:14:22.633Z,9.19
2019-03-09T04:15:22.643Z,9.16
2019-03-09T04:16:22.673Z,9.13
2019-03-09T04:17:22.638Z,9.13
2019-03-09T04:18:22.652Z,9.11
2019-03-09T04:19:22.607Z,9.09
2019-03-09T04:20:22.625Z,9.07
2019-03-09T04:21:22.639Z,9.07
2019-03-09T04:22:22.660Z,9.07
2019-03-09T04:23:24.013Z,9.04
2019-03-09T04:24:22.615Z,9.06
2019-03-09T04:25:22.607Z,9
2019-03-09T04:26:22.609Z,9
2019-03-09T04:27:22.658Z,9
2019-03-09T04:28:22.606Z,8.98
2019-03-09T04:29:22.610Z,8.99
2019-03-09T04:30:22.647Z,8.99
2019-03-09T04:31:22.600Z,8.98
2019-03-09T04:32:22.611Z,8.98
2019-03-09T04:33:22.587Z,8.95
2019-03-09T04:34:22.606Z,8.92
2019-03-09T04:35:22.615Z,8.93
2019-03-09T04:36:22.618Z,8.92
2019-03-09T04:37:22.601Z,8.92
2019-03-09T04:38:22.585Z,8.89
2019-03-09T04:39:22.593Z,8.89
2019-03-09T04:40:22.701Z,8.83
2019-03-09T04:41:23.008Z,8.83
2019-03-09T04:42:22.613Z,8.82
2019-03-09T04:43:22.590Z,8.78
2019-03-09T04:44:22.576Z,8.78
2019-03-09T04:45:22.563Z,8.75
2019-03-09T04:46:22.566Z,8.72
2019-03-09T04:47:22.598Z,8.72
2019-03-09T04:48:22.620Z,8.71
2019-03-09T04:49:22.553Z,8.68
2019-03-09T04:50:22.581Z,8.66
2019-03-09T04:51:22.566Z,8.68
2019-03-09T04:52:22.575Z,8.66
2019-03-09T04:53:22.588Z,8.54
2019-03-09T04:54:22.639Z,8.57
2019-03-09T04:55:22.585Z,8.58
2019-03-09T04:56:22.563Z,8.54
2019-03-09T04:57:22.596Z,8.51
2019-03-09T04:58:22.575Z,8.52
2019-03-09T04:59:22.558Z,8.51
2019-03-09T05:00:22.562Z,8.51
2019-03-09T05:01:22.581Z,8.45
2019-03-09T05:02:22.616Z,8.47
2019-03-09T05:03:22.687Z,8.47
2019-03-09T05:04:22.555Z,8.41
2019-03-09T05:05:22.559Z,8.41
2019-03-09T05:06:22.554Z,8.4
2019-03-09T05:07:22.553Z,8.4
2019-03-09T05:08:22.586Z,8.41
2019-03-09T05:09:22.540Z,8.43
2019-03-09T05:10:22.585Z,8.4
2019-03-09T05:11:22.568Z,8.4
2019-03-09T05:12:22.610Z,8.33
2019-03-09T05:13:22.558Z,8.31
2019-03-09T05:14:22.519Z,8.29
2019-03-09T05:15:22.552Z,8.31
2019-03-09T05:16:22.540Z,8.3
2019-03-09T05:17:22.544Z,8.27
2019-03-09T05:18:22.543Z,8.29
2019-03-09T05:19:22.562Z,8.24
2019-03-09T05:20:22.548Z,8.23
2019-03-09T05:21:22.593Z,8.23
2019-03-09T05:22:22.542Z,8.21
2019-03-09T05:23:22.530Z,8.19
2019-03-09T05:24:22.829Z,8.19
2019-03-09T05:25:22.531Z,8.17
2019-03-09T05:26:22.537Z,8.17
2019-03-09T05:27:22.522Z,8.16
2019-03-09T05:28:22.513Z,8.16
2019-03-09T05:29:22.509Z,8.16
2019-03-09T05:30:22.527Z,8.14
2019-03-09T05:31:22.536Z,8.17
2019-03-09T05:32:22.529Z,8.14
2019-03-09T05:33:22.547Z,8.12
2019-03-09T05:34:22.531Z,8.1
2019-03-09T05:35:22.521Z,8.13
2019-03-09T05:36:22.502Z,8.12
2019-03-09T05:37:22.499Z,8.09
2019-03-09T05:38:22.531Z,8.08
2019-03-09T05:39:22.535Z,7.99
2019-03-09T05:40:22.506Z,7.98
2019-03-09T05:41:22.499Z,7.99
2019-03-09T05:42:22.525Z,7.98
2019-03-09T05:43:22.518Z,7.98
2019-03-09T05:44:22.494Z,7.96
2019-03-09T05:45:22.513Z,7.95
2019-03-09T05:46:22.595Z,7.95
2019-03-09T05:47:22.763Z,7.91
2019-03-09T05:48:22.508Z,7.88
2019-03-09T05:49:22.518Z,7.89
2019-03-09T05:50:22.492Z,7.86
2019-03-09T05:51:22.501Z,7.86
2019-03-09T05:52:22.480Z,7.85
2019-03-09T05:53:22.470Z,7.86
2019-03-09T05:54:22.527Z,7.84
2019-03-09T05:55:22.486Z,7.85
2019-03-09T05:56:22.491Z,7.84
2019-03-09T05:57:22.503Z,7.85
2019-03-09T05:58:22.490Z,7.82
2019-03-09T05:59:22.485Z,7.84
2019-03-09T06:00:22.467Z,7.86
2019-03-09T06:01:22.468Z,7.89
2019-03-09T06:02:22.470Z,7.86
2019-03-09T06:03:22.513Z,7.89
2019-03-09T06:04:22.493Z,7.86
2019-03-09T06:05:22.481Z,7.88
2019-03-09T06:06:22.463Z,7.89
2019-03-09T06:07:22.476Z,7.89
2019-03-09T06:08:22.545Z,7.89
2019-03-09T06:09:22.468Z,7.92
2019-03-09T06:10:22.461Z,7.89
2019-03-09T06:11:22.470Z,7.89
2019-03-09T06:12:22.461Z,7.92
2019-03-09T06:13:22.434Z,7.88
2019-03-09T06:14:22.465Z,7.91
2019-03-09T06:15:22.447Z,7.91
2019-03-09T06:16:22.450Z,7.86
2019-03-09T06:17:22.481Z,7.91
2019-03-09T06:18:22.439Z,7.91
2019-03-09T06:19:22.434Z,7.92
2019-03-09T06:20:22.433Z,7.91
2019-03-09T06:21:22.487Z,7.88
2019-03-09T06:22:22.431Z,7.89
2019-03-09T06:23:22.440Z,7.93
2019-03-09T06:24:22.432Z,7.92
2019-03-09T06:25:22.449Z,7.93
2019-03-09T06:26:22.429Z,7.91
2019-03-09T06:27:22.442Z,7.93
2019-03-09T06:28:22.444Z,7.92
2019-03-09T06:29:22.423Z,7.99
2019-03-09T06:30:22.547Z,7.98
2019-03-09T06:31:22.441Z,8.01
2019-03-09T06:32:22.419Z,8.01
2019-03-09T06:33:22.432Z,7.99
2019-03-09T06:34:22.421Z,7.96
2019-03-09T06:35:22.430Z,7.99
2019-03-09T06:36:22.565Z,8.01
2019-03-09T06:37:22.452Z,8.02
2019-03-09T06:38:22.402Z,8.01
2019-03-09T06:39:22.408Z,8.01
2019-03-09T06:40:22.414Z,7.99
2019-03-09T06:41:22.406Z,8.02
2019-03-09T06:42:22.415Z,8.02
2019-03-09T06:43:22.417Z,8.03
2019-03-09T06:44:22.448Z,8.02
2019-03-09T06:45:22.415Z,8.05
2019-03-09T06:46:22.414Z,8.03
2019-03-09T06:47:22.500Z,8.05
2019-03-09T06:48:22.415Z,8.03
2019-03-09T06:49:22.400Z,8.03
2019-03-09T06:50:22.393Z,8.05
2019-03-09T06:51:22.446Z,8.05
2019-03-09T06:52:23.340Z,8.03
2019-03-09T06:53:22.419Z,8.03
2019-03-09T06:54:22.434Z,8.05
2019-03-09T06:55:22.424Z,8.08
2019-03-09T06:56:22.391Z,8.09
2019-03-09T06:57:22.414Z,8.09
2019-03-09T06:58:22.387Z,8.08
2019-03-09T06:59:22.402Z,8.06
2019-03-09T07:00:22.400Z,8.08
2019-03-09T07:01:22.426Z,8.1
2019-03-09T07:02:22.384Z,8.12
2019-03-09T07:03:22.416Z,8.12
2019-03-09T07:04:22.376Z,8.13
2019-03-09T07:05:22.410Z,8.13
2019-03-09T07:06:22.380Z,8.13
2019-03-09T07:07:22.373Z,8.16
2019-03-09T07:08:22.389Z,8.16
2019-03-09T07:09:22.398Z,8.19
2019-03-09T07:10:22.378Z,8.17
2019-03-09T07:11:22.387Z,8.19
2019-03-09T07:12:22.406Z,8.17
2019-03-09T07:13:22.374Z,8.17
2019-03-09T07:14:22.800Z,8.19
2019-03-09T07:15:22.387Z,8.2
2019-03-09T07:16:22.357Z,8.24
2019-03-09T07:17:22.372Z,8.24
2019-03-09T07:18:22.372Z,8.26
2019-03-09T07:19:22.414Z,8.27
2019-03-09T07:20:22.598Z,8.26
2019-03-09T07:21:22.360Z,8.27
2019-03-09T07:22:22.361Z,8.3
2019-03-09T07:23:22.354Z,8.33
2019-03-09T07:24:22.414Z,8.31
2019-03-09T07:25:22.378Z,8.34
2019-03-09T07:26:22.372Z,8.36
2019-03-09T07:27:22.333Z,8.36
2019-03-09T07:28:22.371Z,8.38
2019-03-09T07:29:22.346Z,8.37
2019-03-09T07:30:22.413Z,8.4
2019-03-09T07:31:22.381Z,8.41
2019-03-09T07:32:22.377Z,8.44
2019-03-09T07:33:22.350Z,8.41
2019-03-09T07:34:22.400Z,8.44
2019-03-09T07:35:22.355Z,8.47
2019-03-09T07:36:22.323Z,8.47
2019-03-09T07:37:22.323Z,8.47
2019-03-09T07:38:22.338Z,8.48
2019-03-09T07:39:22.359Z,8.51
2019-03-09T07:40:22.389Z,8.48
2019-03-09T07:41:22.341Z,8.49
2019-03-09T07:42:22.324Z,8.54
2019-03-09T07:43:22.329Z,8.52
2019-03-09T07:44:22.313Z,8.55
2019-03-09T07:45:22.329Z,8.57
2019-03-09T07:46:22.324Z,8.57
2019-03-09T07:47:22.333Z,8.55
2019-03-09T07:48:22.319Z,8.58
2019-03-09T07:49:22.347Z,8.61
2019-03-09T07:50:22.323Z,8.58
2019-03-09T07:51:22.326Z,8.62
2019-03-09T07:52:22.322Z,8.61
2019-03-09T07:53:22.347Z,8.62
2019-03-09T07:54:22.321Z,8.65
2019-03-09T07:55:22.300Z,8.65
2019-03-09T07:56:22.319Z,8.66
2019-03-09T07:57:22.316Z,8.62
2019-03-09T07:58:22.330Z,8.62
2019-03-09T07:59:22.315Z,8.66
2019-03-09T08:00:22.385Z,8.65
2019-03-09T08:01:24.192Z,8.69
2019-03-09T08:02:22.298Z,8.74
2019-03-09T08:03:22.289Z,8.75
2019-03-09T08:04:22.316Z,8.75
2019-03-09T08:05:22.314Z,8.75
2019-03-09T08:06:22.313Z,8.79
2019-03-09T08:07:22.287Z,8.8
2019-03-09T08:08:22.283Z,8.8
2019-03-09T08:09:22.292Z,8.83
2019-03-09T08:10:22.332Z,8.8
2019-03-09T08:11:22.288Z,8.79
2019-03-09T08:12:24.393Z,8.83
2019-03-09T08:13:22.316Z,8.85
2019-03-09T08:14:22.313Z,8.88
2019-03-09T08:15:22.281Z,8.88
2019-03-09T08:16:22.279Z,8.91
2019-03-09T08:17:22.289Z,8.91
2019-03-09T08:18:22.380Z,8.92
2019-03-09T08:19:22.523Z,8.92
2019-03-09T08:20:22.333Z,8.93
2019-03-09T08:21:22.274Z,8.93
2019-03-09T08:22:22.271Z,8.96
2019-03-09T08:23:22.303Z,8.98
2019-03-09T08:24:22.301Z,9
2019-03-09T08:25:22.293Z,8.99
2019-03-09T08:26:22.265Z,9
2019-03-09T08:27:22.331Z,9.02
2019-03-09T08:28:22.317Z,9.04
2019-03-09T08:29:22.262Z,9.07
2019-03-09T08:30:22.348Z,9.07
2019-03-09T08:31:22.327Z,9.07
2019-03-09T08:32:22.353Z,9.1
2019-03-09T08:33:22.322Z,9.11
2019-03-09T08:34:22.276Z,9.13
2019-03-09T08:35:22.271Z,9.14
2019-03-09T08:36:22.262Z,9.14
2019-03-09T08:37:22.311Z,9.17
2019-03-09T08:38:22.334Z,9.17
2019-03-09T08:39:22.265Z,9.17
2019-03-09T08:40:22.346Z,9.16
2019-03-09T08:41:22.339Z,9.19
2019-03-09T08:42:22.263Z,9.21
2019-03-09T08:43:22.279Z,9.2
2019-03-09T08:44:22.298Z,9.17
2019-03-09T08:45:22.249Z,9.2
2019-03-09T08:46:22.333Z,9.2
2019-03-09T08:47:22.248Z,9.23
2019-03-09T08:48:22.302Z,9.23
2019-03-09T08:49:22.258Z,9.23
2019-03-09T08:50:22.467Z,9.24
2019-03-09T08:51:22.278Z,9.26
2019-03-09T08:52:22.268Z,9.26
2019-03-09T08:53:22.255Z,9.26
2019-03-09T08:54:22.273Z,9.27
2019-03-09T08:55:22.292Z,9.26
2019-03-09T08:56:22.293Z,9.26
2019-03-09T08:57:22.276Z,9.27
2019-03-09T08:58:22.289Z,9.29
2019-03-09T08:59:22.281Z,9.3
2019-03-09T09:00:22.300Z,9.3
2019-03-09T09:01:22.254Z,9.33
2019-03-09T09:02:22.716Z,9.31
2019-03-09T09:03:22.230Z,9.33
2019-03-09T09:04:22.216Z,9.35
2019-03-09T09:05:22.219Z,9.35
2019-03-09T09:06:22.208Z,9.37
2019-03-09T09:07:22.226Z,9.37
2019-03-09T09:08:22.216Z,9.35
2019-03-09T09:09:22.246Z,9.38
2019-03-09T09:10:22.242Z,9.4
2019-03-09T09:11:22.240Z,9.42
2019-03-09T09:12:22.204Z,9.42
2019-03-09T09:13:22.211Z,9.49
2019-03-09T09:14:22.209Z,9.47
2019-03-09T09:15:22.194Z,9.51
2019-03-09T09:16:22.207Z,9.51
2019-03-09T09:17:22.222Z,9.52
2019-03-09T09:18:22.187Z,9.52
2019-03-09T09:19:22.185Z,9.54
2019-03-09T09:20:22.194Z,9.54
2019-03-09T09:21:22.190Z,9.54
2019-03-09T09:22:22.208Z,9.55
2019-03-09T09:23:22.733Z,9.58
2019-03-09T09:24:22.199Z,9.55
2019-03-09T09:25:22.201Z,9.55
2019-03-09T09:26:22.202Z,9.59
2019-03-09T09:27:22.160Z,9.59
2019-03-09T09:28:22.190Z,9.62
2019-03-09T09:29:22.210Z,9.61
2019-03-09T09:30:22.202Z,9.62
2019-03-09T09:31:22.209Z,9.65
2019-03-09T09:32:22.214Z,9.63
2019-03-09T09:33:22.203Z,9.66
2019-03-09T09:34:22.231Z,9.66
2019-03-09T09:35:22.177Z,9.66
2019-03-09T09:36:22.190Z,9.68
2019-03-09T09:37:22.197Z,9.7
2019-03-09T09:38:22.215Z,9.73
2019-03-09T09:39:22.182Z,9.75
2019-03-09T09:40:22.212Z,9.73
2019-03-09T09:41:22.247Z,9.75
2019-03-09T09:42:22.188Z,9.78
2019-03-09T09:43:22.192Z,9.73
2019-03-09T09:44:22.173Z,9.78
2019-03-09T09:45:22.279Z,9.78
2019-03-09T09:46:22.185Z,9.78
2019-03-09T09:47:22.188Z,9.79
2019-03-09T09:48:22.155Z,9.82
2019-03-09T09:49:22.175Z,9.83
2019-03-09T09:50:22.201Z,9.85
2019-03-09T09:51:22.173Z,9.82
2019-03-09T09:52:22.163Z,9.81
2019-03-09T09:53:23.760Z,9.82
2019-03-09T09:54:22.142Z,9.83
2019-03-09T09:55:22.140Z,9.82
2019-03-09T09:56:22.155Z,9.83
2019-03-09T09:57:22.177Z,9.86
2019-03-09T09:58:22.188Z,9.86
2019-03-09T09:59:22.177Z,9.88
2019-03-09T10:00:22.235Z,9.92
2019-03-09T10:01:22.172Z,9.92
2019-03-09T10:02:22.149Z,9.9
2019-03-09T10:03:22.166Z,9.92
2019-03-09T10:04:22.135Z,9.94
2019-03-09T10:05:22.147Z,9.99
2019-03-09T10:06:21.910Z,10
2019-03-09T10:07:22.216Z,10.02
2019-03-09T10:08:22.170Z,10.03
2019-03-09T10:09:22.162Z,10.04
2019-03-09T10:10:22.148Z,10.07
2019-03-09T10:11:22.127Z,10.04
2019-03-09T10:12:22.116Z,10.07
2019-03-09T10:13:22.121Z,10.07
2019-03-09T10:14:22.118Z,10.11
2019-03-09T10:15:22.109Z,10.1
2019-03-09T10:16:22.163Z,10.13
2019-03-09T10:17:22.139Z,10.17
2019-03-09T10:18:22.097Z,10.2
2019-03-09T10:19:22.139Z,10.2
2019-03-09T10:20:22.105Z,10.23
2019-03-09T10:21:22.103Z,10.21
2019-03-09T10:22:22.108Z,10.23
2019-03-09T10:23:22.123Z,10.24
2019-03-09T10:24:22.099Z,10.24
2019-03-09T10:25:22.134Z,10.28
2019-03-09T10:26:26.873Z,10.28
2019-03-09T10:27:22.099Z,10.27
2019-03-09T10:28:22.117Z,10.28
2019-03-09T10:29:22.316Z,10.32
2019-03-09T10:30:22.108Z,10.31
2019-03-09T10:31:22.073Z,10.31
2019-03-09T10:32:22.101Z,10.32
2019-03-09T10:33:24.446Z,10.35
2019-03-09T10:34:22.139Z,10.39
2019-03-09T10:35:22.120Z,10.38
2019-03-09T10:36:22.166Z,10.41
2019-03-09T10:37:22.108Z,10.38
2019-03-09T10:38:22.099Z,10.41
2019-03-09T10:39:22.101Z,10.45
2019-03-09T10:40:22.102Z,10.44
2019-03-09T10:41:22.091Z,10.45
2019-03-09T10:42:22.094Z,10.45
2019-03-09T10:43:22.079Z,10.48
2019-03-09T10:44:22.085Z,10.48
2019-03-09T10:45:22.077Z,10.48
2019-03-09T10:46:22.086Z,10.45
2019-03-09T10:47:22.101Z,10.45
2019-03-09T10:48:22.070Z,10.45
2019-03-09T10:49:22.089Z,10.45
2019-03-09T10:50:22.164Z,10.45
2019-03-09T10:51:22.200Z,10.42
2019-03-09T10:52:22.069Z,10.42
2019-03-09T10:53:22.132Z,10.41
2019-03-09T10:54:22.079Z,10.41
2019-03-09T10:55:22.073Z,10.39
2019-03-09T10:56:22.068Z,10.35
2019-03-09T10:57:22.066Z,10.37
2019-03-09T10:58:22.085Z,10.34
2019-03-09T10:59:22.055Z,10.32
2019-03-09T11:00:22.054Z,10.32
2019-03-09T11:01:22.061Z,10.3
2019-03-09T11:02:22.049Z,10.28
2019-03-09T11:03:22.075Z,10.28
2019-03-09T11:04:28.116Z,10.28
2019-03-09T11:05:22.038Z,10.25
2019-03-09T11:06:22.054Z,10.2
2019-03-09T11:07:22.045Z,10.2
2019-03-09T11:08:22.067Z,10.2
2019-03-09T11:09:22.099Z,10.2
2019-03-09T11:10:22.098Z,10.19
2019-03-09T11:11:22.060Z,10.16
2019-03-09T11:12:22.091Z,10.16
2019-03-09T11:13:22.053Z,10.19
2019-03-09T11:14:22.072Z,10.17
2019-03-09T11:15:22.043Z,10.13
2019-03-09T11:16:22.105Z,10.11
2019-03-09T11:17:22.035Z,10.09
2019-03-09T11:18:22.029Z,10.07
2019-03-09T11:19:22.053Z,10.09
2019-03-09T11:20:22.048Z,10.1
2019-03-09T11:21:22.038Z,10.09
2019-03-09T11:22:22.032Z,10.04
2019-03-09T11:23:22.032Z,10.03
2019-03-09T11:24:22.024Z,10.04
2019-03-09T11:25:22.049Z,10.04
2019-03-09T11:26:22.038Z,10.02
2019-03-09T11:27:22.152Z,10.03
2019-03-09T11:28:22.025Z,10.03
2019-03-09T11:29:22.032Z,10.04
2019-03-09T11:30:22.042Z,10
2019-03-09T11:31:22.020Z,10
2019-03-09T11:32:22.023Z,9.97
2019-03-09T11:33:22.043Z,10
2019-03-09T11:34:22.492Z,9.97
2019-03-09T11:35:22.065Z,9.97
2019-03-09T11:36:22.085Z,9.99
2019-03-09T11:37:22.040Z,9.99
2019-03-09T11:38:22.030Z,9.99
2019-03-09T11:39:22.063Z,9.99
2019-03-09T11:40:22.018Z,9.96
2019-03-09T11:41:22.025Z,9.9
2019-03-09T11:42:22.015Z,9.96
2019-03-09T11:43:22.054Z,9.97
2019-03-09T11:44:21.996Z,9.99
2019-03-09T11:45:22.008Z,10.02
2019-03-09T11:46:22.007Z,10.03
2019-03-09T11:47:22.015Z,10.03
2019-03-09T11:48:21.997Z,10.04
2019-03-09T11:49:22.028Z,10.02
2019-03-09T11:50:22.080Z,10.04
2019-03-09T11:51:22.005Z,10.06
2019-03-09T11:52:21.995Z,10.04
2019-03-09T11:53:21.969Z,10.03
2019-03-09T11:54:22.738Z,10.03
2019-03-09T11:55:22.002Z,10.03
2019-03-09T11:56:21.970Z,10.02
2019-03-09T11:57:21.987Z,10.06
2019-03-09T11:58:21.983Z,10.04
2019-03-09T11:59:22.049Z,10.06
2019-03-09T12:00:21.983Z,10.04
2019-03-09T12:01:21.993Z,10.09
2019-03-09T12:02:21.971Z,10.07
2019-03-09T12:03:21.965Z,10.07
2019-03-09T12:04:21.982Z,10.1
2019-03-09T12:05:21.972Z,10.1
2019-03-09T12:06:21.976Z,10.06
2019-03-09T12:07:21.970Z,10.1
2019-03-09T12:08:21.956Z,10.09
2019-03-09T12:09:21.959Z,10.11
2019-03-09T12:10:22.059Z,10.13
2019-03-09T12:11:22.125Z,10.13
2019-03-09T12:12:21.975Z,10.14
2019-03-09T12:13:21.977Z,10.17
2019-03-09T12:14:22.043Z,10.16
2019-03-09T12:15:21.967Z,10.17
2019-03-09T12:16:21.996Z,10.21
2019-03-09T12:17:21.972Z,10.21
2019-03-09T12:18:21.950Z,10.25
2019-03-09T12:19:21.950Z,10.24
2019-03-09T12:20:21.965Z,10.25
2019-03-09T12:21:21.958Z,10.3
2019-03-09T12:22:21.966Z,10.3
2019-03-09T12:23:22.061Z,10.32
2019-03-09T12:24:22.839Z,10.32
2019-03-09T12:25:22.019Z,10.32
2019-03-09T12:26:21.979Z,10.34
2019-03-09T12:27:22.942Z,10.35
2019-03-09T12:28:21.963Z,10.37
2019-03-09T12:29:21.932Z,10.37
2019-03-09T12:30:21.984Z,10.37
2019-03-09T12:31:21.952Z,10.38
2019-03-09T12:32:21.931Z,10.38
2019-03-09T12:33:21.938Z,10.38
2019-03-09T12:34:21.941Z,10.39
2019-03-09T12:35:21.952Z,10.38
2019-03-09T12:36:21.952Z,10.39
2019-03-09T12:37:21.916Z,10.41
2019-03-09T12:38:21.955Z,10.41
2019-03-09T12:39:22.800Z,10.41
2019-03-09T12:40:22.057Z,10.44
2019-03-09T12:41:21.919Z,10.41
2019-03-09T12:42:22.052Z,10.39
2019-03-09T12:43:21.936Z,10.44
2019-03-09T12:44:21.943Z,10.42
2019-03-09T12:45:21.935Z,10.44
2019-03-09T12:46:21.937Z,10.45
2019-03-09T12:47:21.956Z,10.44
2019-03-09T12:48:22.026Z,10.44
2019-03-09T12:49:21.925Z,10.44
2019-03-09T12:50:22.043Z,10.45
2019-03-09T12:51:21.911Z,10.41
2019-03-09T12:52:21.934Z,10.42
2019-03-09T12:53:21.962Z,10.41
2019-03-09T12:54:21.912Z,10.41
2019-03-09T12:55:21.889Z,10.39
2019-03-09T12:56:21.911Z,10.38
2019-03-09T12:57:21.913Z,10.35
2019-03-09T12:58:21.924Z,10.35
2019-03-09T12:59:21.915Z,10.38
2019-03-09T13:00:21.979Z,10.35
2019-03-09T13:01:22.311Z,10.34
2019-03-09T13:02:21.886Z,10.34
2019-03-09T13:03:21.896Z,10.35
2019-03-09T13:04:21.892Z,10.34
2019-03-09T13:05:21.901Z,10.32
2019-03-09T13:06:21.926Z,10.31
2019-03-09T13:07:21.910Z,10.3
2019-03-09T13:08:23.783Z,10.32
2019-03-09T13:09:21.902Z,10.31
2019-03-09T13:10:21.882Z,10.34
2019-03-09T13:11:21.910Z,10.31
2019-03-09T13:12:21.931Z,10.34
2019-03-09T13:13:21.872Z,10.37
2019-03-09T13:14:21.878Z,10.35
2019-03-09T13:15:21.907Z,10.35